Time;durP1;ratioP1;P1;durP2;ratioP2;P2;SDS_P1;SDS_P2;PMS_P1;PMS_P2;Temp;Humidity;BMP_temperature;BMP_pressure;BME280_temperature;BME280_humidity;BME280_pressure;Samples;Min_cycle;Max_cycle;Signal;HPM_P1;HPM_P2
2022/09/15 00:02:24;;;;;;;3.67;3.33;;;;;;;18.61;100.00;98235.56;4901172;29;20239;-92
2022/09/15 00:04:50;;;;;;;4.77;2.80;;;;;;;18.64;100.00;98240.38;4909281;29;20241;-92
2022/09/15 00:07:17;;;;;;;3.43;2.60;;;;;;;18.63;100.00;98237.94;4912093;29;20236;-92
2022/09/15 00:09:44;;;;;;;2.97;2.73;;;;;;;18.62;100.00;98244.47;4897531;29;20245;-92
2022/09/15 00:12:10;;;;;;;4.43;2.83;;;;;;;18.64;100.00;98228.72;4906184;29;20231;-92
2022/09/15 00:14:37;;;;;;;3.40;2.97;;;;;;;18.60;100.00;98238.56;4908683;29;20712;-92
2022/09/15 00:17:04;;;;;;;3.43;2.80;;;;;;;18.56;100.00;98227.53;4901106;29;20716;-93
2022/09/15 00:19:30;;;;;;;5.37;2.90;;;;;;;18.57;100.00;98223.69;4913504;29;20249;-91
2022/09/15 00:21:57;;;;;;;3.87;2.80;;;;;;;18.58;100.00;98230.72;4910189;29;20233;-92
2022/09/15 00:24:24;;;;;;;3.97;2.70;;;;;;;18.66;100.00;98234.66;4894896;29;20235;-93
2022/09/15 00:26:50;;;;;;;3.40;2.80;;;;;;;18.59;100.00;98226.09;4898029;29;20243;-93
2022/09/15 00:29:17;;;;;;;2.70;2.40;;;;;;;18.57;100.00;98228.34;4912098;29;20718;-94
2022/09/15 00:31:44;;;;;;;3.20;2.90;;;;;;;18.60;100.00;98238.56;4915400;29;20242;-94
2022/09/15 00:34:12;;;;;;;3.90;2.80;;;;;;;18.63;100.00;98246.88;4917393;29;20240;-94
2022/09/15 00:36:39;;;;;;;3.50;2.87;;;;;;;18.63;100.00;98259.66;4916221;29;20390;-94
2022/09/15 00:39:06;;;;;;;2.87;2.67;;;;;;;18.62;100.00;98258.03;4916694;29;20244;-94
2022/09/15 00:41:32;;;;;;;4.43;2.90;;;;;;;18.66;100.00;98251.72;4901596;29;20248;-94
2022/09/15 00:44:05;;;;;;;3.47;2.57;;;;;;;18.68;100.00;98243.25;4893163;29;20235;-93
2022/09/15 00:46:35;;;;;;;4.50;2.40;;;;;;;18.64;100.00;98237.66;4900738;29;20306;-92
2022/09/15 00:49:18;;;;;;;2.83;2.60;;;;;;;18.66;100.00;98237.34;4900866;29;20717;-93
2022/09/15 00:52:01;;;;;;;2.63;2.43;;;;;;;18.63;100.00;98237.94;4917100;29;20236;-91
2022/09/15 00:54:32;;;;;;;3.07;2.77;;;;;;;18.67;100.00;98241.66;4898530;29;20230;-90
2022/09/15 00:57:02;;;;;;;3.43;2.70;;;;;;;18.62;100.00;98236.34;4901057;29;20250;-91
2022/09/15 00:59:31;;;;;;;3.40;2.87;;;;;;;18.65;100.00;98239.25;4927965;29;20284;-92
2022/09/15 01:02:22;;;;;;;4.47;2.60;;;;;;;18.64;100.00;98234.13;4903980;29;20229;-92
2022/09/15 01:04:53;;;;;;;2.60;2.40;;;;;;;18.64;100.00;98234.94;4923411;29;20265;-93
2022/09/15 01:08:02;;;;;;;4.80;2.77;;;;;;;18.65;100.00;98233.84;4888465;29;21047;-91
2022/09/15 01:10:32;;;;;;;5.13;2.20;;;;;;;18.65;100.00;98239.25;4905038;29;20274;-92
2022/09/15 01:13:03;;;;;;;3.80;2.40;;;;;;;18.60;100.00;98227.72;4901137;29;20242;-93
2022/09/15 01:15:58;;;;;;;3.23;2.57;;;;;;;18.61;100.00;98232.03;4899766;29;20256;-92
2022/09/15 01:19:03;;;;;;;2.47;2.23;;;;;;;18.63;100.00;98227.91;4929322;29;20704;-93
2022/09/15 01:21:50;;;;;;;3.37;2.40;;;;;;;18.61;100.00;98222.00;4922487;29;20651;-93
2022/09/15 01:24:43;;;;;;;2.60;2.40;;;;;;;18.61;100.00;98221.19;4905432;29;20236;-92
2022/09/15 01:27:41;;;;;;;4.07;2.90;;;;;;;18.60;100.00;98223.09;4935664;29;20252;-91
2022/09/15 01:30:21;;;;;;;4.40;2.57;;;;;;;18.58;100.00;98233.44;4923985;29;20334;-91
2022/09/15 01:33:03;;;;;;;3.10;2.70;;;;;;;18.55;100.00;98246.81;4915251;29;20659;-91
2022/09/15 01:35:53;;;;;;;3.53;2.87;;;;;;;18.55;100.00;98261.19;4911427;29;20329;-90
2022/09/15 01:38:31;;;;;;;4.17;2.60;;;;;;;18.50;100.00;98247.69;4912459;29;20322;-91
2022/09/15 01:41:04;;;;;;;3.87;3.00;;;;;;;18.47;100.00;98251.03;4894501;29;20233;-90
2022/09/15 01:43:33;;;;;;;2.90;2.60;;;;;;;18.48;100.00;98230.91;4911373;29;20237;-93
2022/09/15 01:46:02;;;;;;;4.97;2.53;;;;;;;18.41;100.00;98233.25;4915025;29;20241;-93
2022/09/15 01:48:30;;;;;;;3.13;2.43;;;;;;;18.40;100.00;98221.59;4911918;29;20245;-93
2022/09/15 01:50:59;;;;;;;3.13;2.83;;;;;;;18.36;100.00;98208.94;4913105;29;20239;-92
2022/09/15 01:53:27;;;;;;;2.90;2.70;;;;;;;18.35;100.00;98196.50;4916989;29;20238;-92
2022/09/15 01:56:04;;;;;;;3.63;2.90;;;;;;;18.31;100.00;98192.78;4915968;29;20230;-92
2022/09/15 01:58:32;;;;;;;3.97;2.53;;;;;;;18.30;100.00;98207.44;4906978;29;20258;-92
2022/09/15 02:01:07;;;;;;;3.00;2.60;;;;;;;18.31;100.00;98204.44;4903036;29;20231;-92
2022/09/15 02:03:45;;;;;;;3.53;2.83;;;;;;;18.34;100.00;98203.03;4906853;29;20239;-92
2022/09/15 02:06:21;;;;;;;4.97;2.80;;;;;;;18.35;100.00;98199.22;4906713;29;20326;-92
2022/09/15 02:08:56;;;;;;;3.70;2.30;;;;;;;18.36;100.00;98184.56;4923319;29;20237;-92
2022/09/15 02:11:25;;;;;;;3.00;2.60;;;;;;;18.33;100.00;98187.88;4907482;29;20258;-92
2022/09/15 02:14:17;;;;;;;3.73;2.57;;;;;;;18.31;100.00;98190.88;4916147;29;20253;-93
2022/09/15 02:16:46;;;;;;;2.83;2.40;;;;;;;18.29;100.00;98187.66;4929155;29;20241;-93
2022/09/15 02:19:21;;;;;;;3.13;2.67;;;;;;;18.30;100.00;98177.63;4922044;29;20278;-94
2022/09/15 02:21:56;;;;;;;3.30;2.40;;;;;;;18.30;100.00;98174.91;4915754;29;20271;-94
2022/09/15 02:24:53;;;;;;;3.20;2.47;;;;;;;18.31;100.00;98176.53;4914802;29;20233;-95
2022/09/15 02:27:23;;;;;;;2.63;2.40;;;;;;;18.31;100.00;98182.75;4880254;29;20259;-95
2022/09/15 02:29:52;;;;;;;3.47;2.60;;;;;;;18.34;100.00;98186.75;4898957;29;20239;-95
2022/09/15 02:32:22;;;;;;;2.70;2.50;;;;;;;18.38;100.00;98182.34;4904402;29;20316;-92
2022/09/15 02:34:50;;;;;;;5.30;2.60;;;;;;;18.45;100.00;98182.72;4913325;29;20326;-93
2022/09/15 02:37:20;;;;;;;3.40;2.90;;;;;;;18.39;100.00;98190.16;4901891;29;20669;-94
2022/09/15 02:39:50;;;;;;;3.47;2.67;;;;;;;18.42;100.00;98186.06;4897419;29;20729;-93
2022/09/15 02:42:28;;;;;;;4.10;2.70;;;;;;;18.52;100.00;98177.69;4915860;29;20245;-93
2022/09/15 02:44:55;;;;;;;3.53;2.90;;;;;;;18.52;100.00;98177.69;4900860;29;20232;-94
2022/09/15 02:47:23;;;;;;;4.37;3.17;;;;;;;18.45;100.00;98180.81;4917465;29;20248;-93
2022/09/15 02:49:49;;;;;;;4.03;2.90;;;;;;;18.44;100.00;98184.63;4917692;29;20237;-94
2022/09/15 02:52:16;;;;;;;4.23;2.83;;;;;;;18.43;100.00;98198.47;4901601;29;20228;-93
2022/09/15 02:54:43;;;;;;;3.53;3.00;;;;;;;18.40;100.00;98202.63;4901333;29;20236;-96
2022/09/15 02:57:09;;;;;;;5.77;3.17;;;;;;;18.41;100.00;98201.50;4880135;29;20232;-95
2022/09/15 03:02:22;;;;;;;4.03;3.00;;;;;;;18.38;100.00;98206.75;4903657;29;20762;-95
2022/09/15 03:04:49;;;;;;;3.23;2.80;;;;;;;18.38;100.00;98196.69;4883595;29;20716;-95
2022/09/15 03:07:17;;;;;;;3.40;2.77;;;;;;;18.36;100.00;98193.50;4904579;29;20231;-91
2022/09/15 03:09:44;;;;;;;3.30;2.73;;;;;;;18.36;100.00;98185.34;4903538;29;20259;-91
2022/09/15 03:12:11;;;;;;;2.60;2.40;;;;;;;18.40;100.00;98186.34;4899503;29;20338;-91
2022/09/15 03:14:37;;;;;;;3.77;2.67;;;;;;;18.38;100.00;98174.22;4889082;29;20255;-92
2022/09/15 03:17:04;;;;;;;3.13;2.80;;;;;;;18.39;100.00;98167.66;4901822;29;20238;-92
2022/09/15 03:19:31;;;;;;;4.97;2.70;;;;;;;18.40;100.00;98167.38;4901590;29;20245;-91
2022/09/15 03:21:57;;;;;;;2.90;2.70;;;;;;;18.40;100.00;98169.28;4907989;29;20353;-91
2022/09/15 03:24:24;;;;;;;3.37;2.93;;;;;;;18.39;100.00;98175.78;4907416;29;20248;-90
2022/09/15 03:26:51;;;;;;;3.47;2.73;;;;;;;18.40;100.00;98180.94;4900794;29;20274;-92
2022/09/15 03:29:19;;;;;;;3.17;2.87;;;;;;;18.35;100.00;98174.81;4920218;29;20244;-90
2022/09/15 03:31:45;;;;;;;3.17;2.80;;;;;;;18.35;100.00;98180.22;4903958;29;20231;-91
2022/09/15 03:34:12;;;;;;;3.43;3.10;;;;;;;18.33;100.00;98179.75;4888732;29;20289;-92
2022/09/15 03:36:40;;;;;;;5.03;3.10;;;;;;;18.35;100.00;98189.16;4887982;29;20612;-92
2022/09/15 03:39:06;;;;;;;3.47;3.10;;;;;;;18.32;100.00;98197.13;4905723;29;20232;-91
2022/09/15 03:41:33;;;;;;;4.20;3.50;;;;;;;18.29;100.00;98195.78;4901220;29;20678;-89
2022/09/15 03:44:00;;;;;;;4.57;3.00;;;;;;;18.35;100.00;98202.72;4900397;29;20237;-91
2022/09/15 03:46:26;;;;;;;4.67;3.20;;;;;;;18.37;100.00;98200.53;4883870;29;20228;-93
2022/09/15 03:48:53;;;;;;;4.33;2.97;;;;;;;18.35;100.00;98191.88;4903187;29;20242;-90
2022/09/15 03:51:20;;;;;;;4.67;3.10;;;;;;;18.36;100.00;98193.50;4925357;29;20614;-90
2022/09/15 03:53:47;;;;;;;3.60;3.30;;;;;;;18.38;100.00;98202.09;4901400;29;21688;-90
2022/09/15 03:56:25;;;;;;;4.10;3.70;;;;;;;18.40;100.00;98208.03;4903066;29;20235;-91
2022/09/15 03:58:53;;;;;;;4.30;3.23;;;;;;;18.35;100.00;98197.31;4889269;29;20284;-90
2022/09/15 04:01:20;;;;;;;5.17;3.40;;;;;;;18.33;100.00;98193.31;4910527;29;20235;-89
2022/09/15 04:03:47;;;;;;;3.90;3.30;;;;;;;18.32;100.00;98195.22;4893242;29;20227;-90
2022/09/15 04:06:18;;;;;;;3.60;3.30;;;;;;;18.31;100.00;98198.22;4904173;29;20236;-90
2022/09/15 04:08:45;;;;;;;3.53;2.93;;;;;;;18.32;100.00;98200.63;4916552;29;20235;-90
2022/09/15 04:11:12;;;;;;;4.23;3.17;;;;;;;18.30;100.00;98192.00;4916743;29;20235;-90
2022/09/15 04:13:40;;;;;;;3.60;3.30;;;;;;;18.30;100.00;98186.56;4917550;29;20233;-89
2022/09/15 04:16:09;;;;;;;3.50;3.17;;;;;;;18.26;100.00;98192.91;4918925;29;20240;-90
2022/09/15 04:18:36;;;;;;;3.73;3.43;;;;;;;18.23;100.00;98194.31;4908560;29;20240;-90
2022/09/15 04:21:06;;;;;;;3.80;3.50;;;;;;;18.22;100.00;98214.41;4902886;29;20239;-90
2022/09/15 04:23:33;;;;;;;3.67;3.33;;;;;;;18.22;100.00;98211.69;4896315;29;20242;-89
2022/09/15 04:26:02;;;;;;;3.73;3.27;;;;;;;18.25;100.00;98211.06;4915287;29;20328;-90
2022/09/15 04:28:31;;;;;;;4.30;2.97;;;;;;;18.25;100.00;98202.13;4918431;29;20229;-90
2022/09/15 04:31:10;;;;;;;3.50;3.10;;;;;;;18.19;100.00;98208.78;4917973;29;20231;-90
2022/09/15 04:33:38;;;;;;;3.77;3.37;;;;;;;18.18;100.00;98207.97;4900841;29;20230;-90
2022/09/15 04:36:10;;;;;;;4.00;3.17;;;;;;;18.18;100.00;98205.28;4897359;29;20229;-89
2022/09/15 04:38:37;;;;;;;4.27;3.10;;;;;;;18.21;100.00;98203.84;4897521;29;20242;-90
2022/09/15 04:41:04;;;;;;;4.43;3.13;;;;;;;18.19;100.00;98197.94;4916052;29;20273;-89
2022/09/15 04:43:32;;;;;;;3.50;3.20;;;;;;;18.21;100.00;98203.84;4907919;29;20233;-89
2022/09/15 04:45:58;;;;;;;4.47;3.17;;;;;;;18.16;100.00;98206.66;4916978;29;20239;-89
2022/09/15 04:48:25;;;;;;;3.90;3.30;;;;;;;18.18;100.00;98212.59;4886863;29;20254;-90
2022/09/15 04:50:52;;;;;;;3.77;2.97;;;;;;;18.17;100.00;98209.09;4915247;29;20706;-89
2022/09/15 04:53:19;;;;;;;3.83;3.50;;;;;;;18.15;100.00;98207.78;4918895;29;20233;-89
2022/09/15 04:55:46;;;;;;;4.23;3.50;;;;;;;18.16;100.00;98210.19;4918507;29;20234;-90
2022/09/15 04:58:13;;;;;;;4.87;3.30;;;;;;;18.16;100.00;98196.63;4906077;29;20701;-89
2022/09/15 05:00:44;;;;;;;7.33;4.00;;;;;;;18.22;100.00;98186.47;4922835;29;20234;-91
2022/09/15 05:03:12;;;;;;;4.57;3.83;;;;;;;18.28;100.00;98201.53;4920949;29;20236;-90
2022/09/15 05:05:39;;;;;;;4.10;3.70;;;;;;;18.37;100.00;98202.44;4910652;29;20243;-89
2022/09/15 05:08:07;;;;;;;4.90;4.07;;;;;;;18.49;100.00;98195.38;4891286;29;20244;-88
2022/09/15 05:10:33;;;;;;;5.47;4.00;;;;;;;18.57;100.00;98212.84;4894477;29;20285;-90
2022/09/15 05:13:00;;;;;;;5.07;3.60;;;;;;;18.71;100.00;98199.25;4912926;29;20235;-89
2022/09/15 05:15:27;;;;;;;4.30;3.90;;;;;;;18.75;100.00;98208.38;4891140;29;20290;-90
2022/09/15 05:17:53;;;;;;;4.07;3.73;;;;;;;18.80;100.00;98222.63;4904518;29;20237;-89
2022/09/15 05:20:21;;;;;;;3.73;3.43;;;;;;;18.92;100.00;98227.50;4891513;29;20551;-90
2022/09/15 05:22:47;;;;;;;3.70;3.40;;;;;;;18.99;100.00;98240.66;4916509;29;20246;-90
2022/09/15 05:25:14;;;;;;;5.30;3.33;;;;;;;19.06;100.00;98247.25;4907952;29;20257;-91
2022/09/15 05:27:41;;;;;;;4.37;2.90;;;;;;;19.21;100.00;98238.75;4892295;29;20227;-90
2022/09/15 05:30:08;;;;;;;4.10;3.10;;;;;;;19.33;100.00;98240.88;4890688;29;20237;-90
2022/09/15 05:32:55;;;;;;;3.60;3.00;;;;;;;19.50;100.00;98234.81;4896134;29;20237;-89
2022/09/15 05:35:22;;;;;;;3.50;2.77;;;;;;;19.69;100.00;98241.59;4906000;29;20745;-90
2022/09/15 05:37:49;;;;;;;3.80;3.10;;;;;;;19.83;100.00;98243.44;4912561;29;20272;-90
2022/09/15 05:40:16;;;;;;;3.20;2.87;;;;;;;19.91;100.00;98246.19;4911017;29;20239;-89
2022/09/15 05:42:42;;;;;;;3.97;2.77;;;;;;;20.00;100.00;98249.75;4911122;29;20255;-89
2022/09/15 05:45:09;;;;;;;3.57;2.80;;;;;;;20.06;100.00;98251.19;4915181;29;20239;-89
2022/09/15 05:47:36;;;;;;;3.23;2.50;;;;;;;20.13;100.00;98240.69;4899079;29;20312;-89
2022/09/15 05:50:03;;;;;;;4.37;2.50;;;;;;;20.26;100.00;98230.78;4906114;29;20234;-87
2022/09/15 05:52:30;;;;;;;3.10;2.33;;;;;;;20.46;100.00;98240.31;4881681;29;20242;-89
2022/09/15 05:54:56;;;;;;;3.10;2.50;;;;;;;20.60;100.00;98244.50;4895135;29;20233;-88
2022/09/15 05:57:24;;;;;;;3.03;2.60;;;;;;;20.69;100.00;98241.78;4880060;29;20228;-89
2022/09/15 05:59:51;;;;;;;3.85;2.63;;;;;;;20.75;100.00;98256.03;4897616;29;20241;-88
2022/09/15 06:02:18;;;;;;;3.03;2.50;;;;;;;20.75;100.00;98235.06;4857963;29;20298;-88
2022/09/15 06:04:45;;;;;;;4.88;2.42;;;;;;;20.80;100.00;98239.56;4866593;29;20809;-88
2022/09/15 06:07:12;;;;;;;2.38;2.13;;;;;;;20.83;100.00;98256.03;4885187;29;20300;-88
2022/09/15 06:09:38;;;;;;;2.65;2.40;;;;;;;20.82;100.00;98249.00;4889839;29;20230;-88
2022/09/15 06:12:05;;;;;;;4.60;2.60;;;;;;;20.81;100.00;98258.28;4908136;29;20245;-88
2022/09/15 06:14:32;;;;;;;2.75;2.30;;;;;;;20.75;100.00;98253.31;4877357;29;20221;-90
2022/09/15 06:16:58;;;;;;;4.20;2.55;;;;;;;20.73;100.00;98259.06;4891234;29;20265;-88
2022/09/15 06:19:25;;;;;;;3.40;2.50;;;;;;;20.74;100.00;98266.13;4897853;29;20226;-89
2022/09/15 06:21:52;;;;;;;4.22;2.60;;;;;;;20.72;100.00;98264.84;4897488;29;20795;-89
2022/09/15 06:24:20;;;;;;;3.67;2.40;;;;;;;20.72;100.00;98262.13;4911986;29;20697;-88
2022/09/15 06:26:47;;;;;;;2.72;2.50;;;;;;;20.70;100.00;98265.16;4890293;29;20252;-88
2022/09/15 06:29:14;;;;;;;2.75;2.40;;;;;;;20.73;100.00;98264.50;4907936;29;20225;-88
2022/09/15 06:31:40;;;;;;;3.70;2.35;;;;;;;20.75;100.00;98286.78;4890419;29;20233;-88
2022/09/15 06:34:08;;;;;;;2.75;2.53;;;;;;;20.74;100.00;98287.91;4907599;29;20297;-89
2022/09/15 06:36:36;;;;;;;3.28;2.50;;;;;;;20.70;100.00;98292.38;4896483;29;20690;-89
2022/09/15 06:39:03;;;;;;;4.50;2.80;;;;;;;20.69;100.00;98293.50;4906271;29;20222;-88
2022/09/15 06:41:54;;;;;;;2.83;2.60;;;;;;;20.62;100.00;98296.66;4888400;29;20234;-88
2022/09/15 06:44:29;;;;;;;3.25;3.00;;;;;;;20.56;100.00;98313.47;4892867;29;20235;-87
2022/09/15 06:46:56;;;;;;;6.05;3.45;;;;;;;20.50;100.00;98306.56;4898477;29;20237;-87
2022/09/15 06:49:23;;;;;;;3.93;3.30;;;;;;;20.43;100.00;98303.53;4886738;29;20997;-89
2022/09/15 06:51:50;;;;;;;4.47;3.30;;;;;;;20.38;100.00;98312.63;4902985;29;20240;-88
2022/09/15 06:54:17;;;;;;;3.30;3.03;;;;;;;20.33;100.00;98317.41;4925128;29;20757;-89
2022/09/15 06:56:43;;;;;;;3.75;3.38;;;;;;;20.22;100.00;98325.81;4918757;29;20241;-88
2022/09/15 06:59:11;;;;;;;3.63;3.33;;;;;;;20.19;100.00;98325.63;4903199;29;20235;-88
2022/09/15 07:01:38;;;;;;;6.53;3.20;;;;;;;20.19;100.00;98328.34;4915844;29;20230;-87
2022/09/15 07:04:07;;;;;;;4.25;3.20;;;;;;;20.19;100.00;98325.63;4934365;29;20237;-87
2022/09/15 07:06:36;;;;;;;5.05;4.00;;;;;;;20.19;100.00;98331.06;4918713;29;20724;-87
2022/09/15 07:09:04;;;;;;;4.90;3.05;;;;;;;20.30;100.00;98316.09;4926613;29;20240;-88
2022/09/15 07:11:32;;;;;;;3.22;3.03;;;;;;;20.41;100.00;98322.06;4897133;29;20236;-88
2022/09/15 07:13:58;;;;;;;5.75;3.40;;;;;;;20.49;100.00;98316.66;4911060;29;20325;-87
2022/09/15 07:16:25;;;;;;;5.13;3.50;;;;;;;20.67;100.00;98316.72;4895484;29;21225;-87
2022/09/15 07:18:54;;;;;;;5.05;3.05;;;;;;;20.76;100.00;98323.78;4902417;29;20241;-86
2022/09/15 07:21:21;;;;;;;3.30;2.97;;;;;;;20.85;100.00;98315.63;4917142;29;20242;-86
2022/09/15 07:23:48;;;;;;;6.55;3.35;;;;;;;20.85;100.00;98313.69;4902959;29;20245;-86
2022/09/15 07:26:24;;;;;;;3.72;3.40;;;;;;;20.84;100.00;98303.94;4913690;29;20249;-87
2022/09/15 07:28:54;;;;;;;4.80;3.67;;;;;;;20.88;100.00;98291.28;4891187;29;20276;-89
2022/09/15 07:31:22;;;;;;;4.95;3.15;;;;;;;20.90;100.00;98289.03;4908066;29;20238;-89
2022/09/15 07:33:49;;;;;;;4.10;3.40;;;;;;;20.88;100.00;98295.91;4902765;29;20264;-89
2022/09/15 07:36:16;;;;;;;4.93;3.50;;;;;;;20.86;100.00;98300.88;4906504;29;20265;-89
2022/09/15 07:38:45;;;;;;;6.28;3.42;;;;;;;20.82;100.00;98305.34;4918359;29;20234;-89
2022/09/15 07:41:14;;;;;;;6.53;3.20;;;;;;;20.77;100.00;98306.31;4922278;29;20332;-89
2022/09/15 07:43:49;;;;;;;3.60;3.30;;;;;;;20.79;100.00;98316.88;4906340;29;20238;-89
2022/09/15 07:46:17;;;;;;;4.30;2.92;;;;;;;20.79;100.00;98311.44;4915040;29;20253;-89
2022/09/15 07:48:45;;;;;;;5.85;3.47;;;;;;;20.75;100.00;98313.19;4910916;29;20581;-89
2022/09/15 07:51:12;;;;;;;5.70;3.72;;;;;;;20.79;100.00;98314.97;4917118;29;20258;-89
2022/09/15 07:53:39;;;;;;;3.47;3.00;;;;;;;20.77;100.00;98321.81;4905269;29;20740;-88
2022/09/15 07:56:06;;;;;;;4.38;3.22;;;;;;;20.81;100.00;98317.38;4916150;29;20241;-89
2022/09/15 07:58:33;;;;;;;4.50;3.38;;;;;;;20.82;100.00;98321.69;4904670;29;20253;-89
2022/09/15 08:01:03;;;;;;;4.82;3.13;;;;;;;20.81;100.00;98326.31;4901490;29;20242;-89
2022/09/15 08:03:31;;;;;;;4.20;3.80;;;;;;;20.76;100.00;98329.22;4902165;29;20314;-90
2022/09/15 08:05:59;;;;;;;4.28;3.45;;;;;;;20.77;100.00;98321.81;4903272;29;20249;-89
2022/09/15 08:08:26;;;;;;;4.18;3.45;;;;;;;20.80;100.00;98318.50;4908008;29;20261;-90
2022/09/15 08:10:53;;;;;;;5.80;3.45;;;;;;;20.84;100.00;98322.97;4901195;29;20238;-89
2022/09/15 08:13:19;;;;;;;5.07;3.50;;;;;;;20.95;100.00;98324.25;4903657;29;20238;-89
2022/09/15 08:15:47;;;;;;;5.40;3.30;;;;;;;21.06;100.00;98322.84;4902654;29;20242;-89
2022/09/15 08:18:14;;;;;;;5.32;3.65;;;;;;;21.13;100.00;98327.84;4917563;29;20245;-89
2022/09/15 08:20:42;;;;;;;3.88;3.20;;;;;;;21.18;100.00;98337.78;4916281;29;20239;-89
2022/09/15 08:23:09;;;;;;;3.33;3.00;;;;;;;21.17;100.00;98350.59;4918802;29;20230;-89
2022/09/15 08:25:39;;;;;;;3.17;2.88;;;;;;;21.15;100.00;98344.66;4911412;29;20261;-89
2022/09/15 08:28:06;;;;;;;4.18;3.25;;;;;;;21.20;100.00;98349.16;4916861;29;20242;-89
2022/09/15 08:30:34;;;;;;;4.30;3.42;;;;;;;21.27;100.00;98342.13;4918943;29;20242;-89
2022/09/15 08:33:01;;;;;;;2.95;2.72;;;;;;;21.37;100.00;98330.88;4901880;29;20235;-89
2022/09/15 08:35:28;;;;;;;5.22;3.25;;;;;;;21.51;100.00;98319.81;4906313;29;20239;-89
2022/09/15 08:37:55;;;;;;;5.68;3.08;;;;;;;21.62;100.00;98320.28;4916697;29;20230;-89
2022/09/15 08:40:28;;;;;;;3.85;2.92;;;;;;;21.66;100.00;98321.22;4904638;29;20682;-91
2022/09/15 08:42:57;;;;;;;3.40;3.10;;;;;;;21.85;100.00;98319.75;4917491;29;20235;-91
2022/09/15 08:45:27;;;;;;;3.45;2.72;;;;;;;22.20;100.00;98308.78;4886410;29;20236;-90
2022/09/15 08:48:00;;;;;;;4.75;2.92;;;;;;;22.49;100.00;98322.41;4921819;29;20230;-91
2022/09/15 08:50:39;;;;;;;6.55;3.05;;;;;;;22.72;100.00;98320.28;4917821;29;20235;-90
2022/09/15 08:53:24;;;;;;;3.90;2.88;;;;;;;22.95;100.00;98327.03;4904855;29;20257;-92
2022/09/15 08:55:57;;;;;;;6.78;2.83;;;;;;;23.16;100.00;98316.91;4907412;29;20253;-90
2022/09/15 08:58:27;;;;;;;3.10;2.80;;;;;;;23.43;100.00;98301.88;4920629;29;20316;-88
2022/09/15 09:01:07;;;;;;;3.65;3.28;;;;;;;23.43;100.00;98299.13;4901716;29;20245;-91
2022/09/15 09:03:58;;;;;;;2.83;2.60;;;;;;;23.89;100.00;98297.28;4917502;29;20317;-90
2022/09/15 09:07:11;;;;;;;2.80;2.60;;;;;;;24.32;100.00;98303.06;4897061;29;20700;-90
2022/09/15 09:09:46;;;;;;;2.90;2.70;;;;;;;24.63;100.00;98305.22;4864439;29;20244;-89
2022/09/15 09:12:37;;;;;;;5.15;2.85;;;;;;;24.76;100.00;98301.34;4915541;29;20240;-88
2022/09/15 09:15:16;;;;;;;4.30;2.72;;;;;;;24.87;100.00;98293.47;4916071;29;20230;-90
2022/09/15 09:17:51;;;;;;;4.97;2.90;;;;;;;24.97;100.00;98296.53;4915182;29;20226;-89
2022/09/15 09:20:44;;;;;;;6.68;3.00;;;;;;;24.94;100.00;98290.94;4917601;29;20316;-90
2022/09/15 09:23:14;;;;;;;2.70;2.50;;;;;;;24.89;100.00;98286.50;4916663;29;20290;-90
2022/09/15 09:25:42;;;;;;;3.30;2.30;;;;;;;24.72;100.00;98267.56;4903251;29;20237;-90
2022/09/15 09:28:36;;;;;;;4.47;2.45;;;;;;;24.61;100.00;98260.94;4905627;29;20241;-91
2022/09/15 09:31:06;;;;;;;2.55;2.35;;;;;;;24.54;100.00;98252.53;4879458;29;20288;-91
2022/09/15 09:33:40;;;;;;;2.67;2.20;;;;;;;24.42;100.00;98260.75;4890056;29;20237;-91
2022/09/15 09:36:13;;;;;;;3.72;2.10;;;;;;;24.39;100.00;98267.72;4901993;29;20229;-91
2022/09/15 09:38:42;;;;;;;2.58;2.03;;;;;;;24.31;100.00;98251.41;4889552;29;20229;-91
2022/09/15 09:41:17;;;;;;;2.83;1.95;;;;;;;24.26;100.00;98251.63;4913297;29;20313;-91
2022/09/15 09:43:46;;;;;;;3.50;2.20;;;;;;;24.34;100.00;98239.78;4885269;29;20258;-91
2022/09/15 09:46:16;;;;;;;2.90;2.08;;;;;;;24.59;100.00;98244.06;4900263;29;20237;-91
2022/09/15 09:48:46;;;;;;;3.75;2.30;;;;;;;24.91;100.00;98236.84;4899267;29;20812;-91
2022/09/15 09:51:30;;;;;;;3.75;2.22;;;;;;;25.24;100.00;98229.16;4857344;29;1142707;-91
2022/09/15 09:54:04;;;;;;;3.15;2.25;;;;;;;25.57;100.00;98228.94;4914609;29;20262;-91
2022/09/15 09:56:30;;;;;;;2.85;2.00;;;;;;;25.79;97.77;98216.59;4926692;29;20298;-91
2022/09/15 09:58:57;;;;;;;2.80;1.90;;;;;;;25.94;93.98;98221.28;4890210;29;20238;-91
2022/09/15 10:01:24;;;;;;;4.13;2.22;;;;;;;26.14;87.33;98222.94;4921301;29;20363;-89
2022/09/15 10:04:17;;;;;;;2.42;2.13;;;;;;;26.32;82.44;98222.59;4904660;29;20233;-89
2022/09/15 10:06:44;;;;;;;2.35;1.85;;;;;;;26.34;81.26;98228.53;4910081;29;20322;-89
2022/09/15 10:09:16;;;;;;;2.92;2.20;;;;;;;26.32;82.88;98225.34;4900580;29;20245;-89
2022/09/15 10:11:45;;;;;;;2.10;1.88;;;;;;;26.26;84.65;98227.56;4894936;29;20334;-89
2022/09/15 10:14:22;;;;;;;1.90;1.67;;;;;;;26.27;84.97;98235.44;4919928;29;20242;-89
2022/09/15 10:17:07;;;;;;;2.30;2.10;;;;;;;26.36;86.60;98234.47;4912184;29;20253;-89
2022/09/15 10:19:56;;;;;;;2.33;2.13;;;;;;;26.24;88.61;98235.34;4899845;29;20241;-89
2022/09/15 10:22:31;;;;;;;2.42;2.15;;;;;;;26.20;88.48;98238.00;4916586;29;20259;-89
2022/09/15 10:25:00;;;;;;;2.72;1.60;;;;;;;26.12;89.37;98238.19;4910165;29;20293;-90
2022/09/15 10:27:33;;;;;;;2.13;1.88;;;;;;;26.05;86.98;98232.50;4908144;29;20233;-90
2022/09/15 10:30:12;;;;;;;3.33;2.10;;;;;;;26.06;83.63;98231.34;4921863;29;20242;-89
2022/09/15 10:32:40;;;;;;;4.75;1.90;;;;;;;26.11;79.17;98225.59;4908595;29;20233;-90
2022/09/15 10:35:18;;;;;;;3.53;2.40;;;;;;;26.18;80.79;98232.03;4903059;29;20222;-89
2022/09/15 10:37:47;;;;;;;2.65;1.90;;;;;;;26.29;80.63;98224.09;4905629;29;20376;-90
2022/09/15 10:40:27;;;;;;;3.30;2.20;;;;;;;26.17;83.38;98210.47;4918671;29;20257;-90
2022/09/15 10:43:21;;;;;;;1.98;1.80;;;;;;;26.08;84.15;98210.63;4899117;29;20238;-91
2022/09/15 10:46:04;;;;;;;1.95;1.80;;;;;;;26.02;86.96;98212.06;4907983;29;20266;-90
2022/09/15 10:48:47;;;;;;;3.88;2.50;;;;;;;25.96;88.85;98207.97;4894908;29;20261;-90
2022/09/15 10:51:20;;;;;;;2.78;1.90;;;;;;;25.86;86.41;98208.50;4921664;29;20240;-90
2022/09/15 10:54:06;;;;;;;4.43;2.78;;;;;;;25.83;84.28;98207.28;4932150;29;20336;-90
2022/09/15 10:56:39;;;;;;;2.40;2.08;;;;;;;25.92;85.41;98193.38;4904643;29;20233;-90
2022/09/15 10:59:27;;;;;;;3.03;2.00;;;;;;;26.01;83.04;98202.22;4904051;29;20322;-90
2022/09/15 11:02:14;;;;;;;4.07;2.80;;;;;;;26.09;83.15;98193.00;4915636;29;20234;-90
2022/09/15 11:05:11;;;;;;;4.35;2.00;;;;;;;26.32;80.46;98204.16;4905662;29;20222;-90
2022/09/15 11:08:16;;;;;;;2.20;2.00;;;;;;;26.38;77.74;98197.25;4936960;29;20638;-90
2022/09/15 11:10:50;;;;;;;6.13;2.20;;;;;;;26.42;81.21;98202.81;4912999;29;20701;-90
2022/09/15 11:13:22;;;;;;;2.17;1.95;;;;;;;26.39;74.95;98190.59;4925021;29;20233;-90
2022/09/15 11:16:02;;;;;;;3.00;2.22;;;;;;;26.53;76.70;98201.13;4927907;29;20235;-90
2022/09/15 11:19:03;;;;;;;5.03;2.10;;;;;;;26.49;71.30;98198.28;4910289;29;20689;-90
2022/09/15 11:21:37;;;;;;;2.20;2.00;;;;;;;26.17;74.97;98199.47;4918905;29;20230;-91
2022/09/15 11:24:27;;;;;;;2.25;1.55;;;;;;;25.63;75.15;98193.81;4920021;29;20674;-90
2022/09/15 11:27:26;;;;;;;2.30;1.60;;;;;;;25.54;79.02;98202.22;4905540;29;20697;-90
2022/09/15 11:30:08;;;;;;;2.72;1.90;;;;;;;25.50;78.63;98204.03;4879508;29;20257;-90
2022/09/15 11:33:10;;;;;;;1.80;1.27;;;;;;;25.20;76.41;98200.88;4918272;29;20253;-90
2022/09/15 11:35:59;;;;;;;2.03;1.25;;;;;;;25.27;74.23;98203.03;4904962;29;20316;-90
2022/09/15 11:38:29;;;;;;;4.45;1.50;;;;;;;25.26;77.85;98212.38;4900932;29;20338;-90
2022/09/15 11:41:13;;;;;;;2.40;1.30;;;;;;;25.18;80.33;98205.94;4921043;29;20717;-90
2022/09/15 11:43:58;;;;;;;1.65;1.55;;;;;;;25.06;82.03;98205.16;4920452;29;20333;-90
2022/09/15 11:46:36;;;;;;;2.08;1.25;;;;;;;24.84;81.22;98212.75;4916210;29;20222;-90
2022/09/15 11:49:11;;;;;;;1.88;1.52;;;;;;;24.70;83.70;98206.06;4922642;29;20234;-90
2022/09/15 11:51:41;;;;;;;2.42;1.42;;;;;;;24.57;88.82;98208.03;4918647;29;20233;-90
2022/09/15 11:54:12;;;;;;;1.58;1.35;;;;;;;24.38;87.90;98207.81;4909136;29;20237;-90